»·PEaware :: N327GB L52-L88

N327GB :: L52-L88

FLIGHT INFORMATION

Flight Status: Arrived
Operator: Privately registered:
United States
More flights under this callsign
Pilot: Hunter M. (20502)
Aircraft: Unknown
(DA40)
More flights by this aircraft type
Origin: L52 Oceano Co
United States
Destination: L88 New Cuyama
United States
More flights between these airports :: More routes between these airports
Route: DCT L88
File this flight plan on PilotEdge
Remarks:
Altitude:
(Current/Filed)
5,500ft
Speed:
(Current/Filed)
110kts
Departed: 20-Sep-18 07:16 AM
Arrived: 20-Sep-18 07:52 AM
Distance/Time
Traveled:
47nm/0:35
Distance/Time
To Go:
Arrived

Flight Plot

Page will automatically refresh every two minutes.


Map Options




Map Legend


Flown Route
Filed Route
Departure Airport
Arrival Airport
Navaid (VOR, NDB)
Fix

Horizontal Profiles

Position Reports

Time Latitude Longitude Heading Altitude Ground
Speed
20-Sep-18 06:57 35.103091 -120.624062 213 15ft 0kts
20-Sep-18 06:58 35.103091 -120.624062 213 15ft 0kts
20-Sep-18 06:59 35.103091 -120.624062 213 15ft 0kts
20-Sep-18 07:00 35.103091 -120.624062 213 15ft 0kts
20-Sep-18 07:01 35.103091 -120.624062 213 15ft 0kts
20-Sep-18 07:02 35.103091 -120.624062 213 15ft 0kts
20-Sep-18 07:03 35.103091 -120.624062 213 15ft 0kts
20-Sep-18 07:04 35.103091 -120.624062 213 15ft 0kts
20-Sep-18 07:05 35.103091 -120.624062 213 15ft 0kts
20-Sep-18 07:06 35.103091 -120.624062 213 15ft 0kts
20-Sep-18 07:07 35.103091 -120.624062 213 15ft 0kts
20-Sep-18 07:08 35.103091 -120.624062 213 15ft 0kts
20-Sep-18 07:09 35.103091 -120.624062 213 15ft 0kts
20-Sep-18 07:10 35.103091 -120.624062 213 15ft 0kts
20-Sep-18 07:11 35.103090 -120.624063 213 15ft 0kts
20-Sep-18 07:12 35.103089 -120.624063 211 15ft 0kts
20-Sep-18 07:13 35.102798 -120.623772 196 15ft 0kts
20-Sep-18 07:14 35.101768 -120.623673 122 13ft 4kts
20-Sep-18 07:15 35.100950 -120.622124 127 16ft 12kts
20-Sep-18 07:16 35.099524 -120.619382 34 16ft 0kts
20-Sep-18 07:17 35.100176 -120.619749 304 16ft 32kts
20-Sep-18 07:18 35.110571 -120.639225 305 645ft 86kts
20-Sep-18 07:19 35.124302 -120.661222 309 1508ft 76kts
20-Sep-18 07:20 35.137745 -120.685163 304 2089ft 96kts
20-Sep-18 07:21 35.157996 -120.684957 54 2815ft 86kts
20-Sep-18 07:22 35.153044 -120.653891 104 3333ft 98kts
20-Sep-18 07:23 35.145909 -120.622882 106 3869ft 96kts
20-Sep-18 07:24 35.141106 -120.591336 101 4363ft 98kts
20-Sep-18 07:25 35.150133 -120.563505 39 4886ft 94kts
20-Sep-18 07:26 35.171199 -120.546079 42 5397ft 95kts
20-Sep-18 07:27 35.186041 -120.517360 61 5506ft 126kts
20-Sep-18 07:28 35.204178 -120.480672 69 5394ft 124kts
20-Sep-18 07:29 35.211748 -120.439797 78 5312ft 120kts
20-Sep-18 07:30 35.208680 -120.402001 105 5466ft 111kts
20-Sep-18 07:31 35.202691 -120.365494 98 5688ft 112kts
20-Sep-18 07:32 35.196118 -120.328206 102 5737ft 122kts
20-Sep-18 07:33 35.186301 -120.289339 110 5784ft 119kts
20-Sep-18 07:34 35.175621 -120.251131 106 5713ft 118kts
20-Sep-18 07:35 35.168042 -120.212393 89 5533ft 118kts
20-Sep-18 07:36 35.163654 -120.173572 104 5558ft 105kts
20-Sep-18 07:37 35.149241 -120.140205 121 5460ft 116kts
20-Sep-18 07:38 35.134092 -120.107426 117 5509ft 114kts
20-Sep-18 07:39 35.119587 -120.073390 116 5497ft 115kts
20-Sep-18 07:40 35.102507 -120.041033 122 5519ft 114kts
20-Sep-18 07:41 35.085781 -120.007219 118 5479ft 116kts
20-Sep-18 07:42 35.069199 -119.972487 115 5517ft 116kts
20-Sep-18 07:43 35.052808 -119.937707 122 5582ft 116kts
20-Sep-18 07:44 35.033673 -119.903120 124 5483ft 122kts
20-Sep-18 07:45 35.013720 -119.869636 122 5538ft 116kts
20-Sep-18 07:46 34.995425 -119.835459 121 5444ft 125kts
20-Sep-18 07:47 34.980916 -119.803949 112 5057ft 108kts
20-Sep-18 07:48 34.967727 -119.768455 114 4570ft 115kts
20-Sep-18 07:49 34.956174 -119.732765 111 4140ft 117kts
20-Sep-18 07:50 34.935722 -119.704229 119 3573ft 99kts
20-Sep-18 07:51 34.928704 -119.680553 104 3160ft 71kts
20-Sep-18 07:52 34.927605 -119.660327 357 3010ft 61kts
20-Sep-18 07:53 34.937228 -119.678950 296 2236ft 61kts
20-Sep-18 07:54 34.942068 -119.690872 302 2152ft 15kts
20-Sep-18 07:55 34.943506 -119.690816 195 2152ft 0kts
20-Sep-18 07:56 34.943502 -119.690817 194 2152ft 0kts
20-Sep-18 07:57 34.943502 -119.690817 194 2152ft 0kts
20-Sep-18 08:00 34.943502 -119.690817 194 2152ft 0kts
20-Sep-18 08:01 34.943502 -119.690817 194 2152ft 0kts
20-Sep-18 08:02 34.943502 -119.690817 194 2152ft 0kts
20-Sep-18 08:03 34.943502 -119.690817 194 2152ft 0kts
20-Sep-18 08:04 34.943502 -119.690817 194 2152ft 0kts

Navigation Log

Ident Type
Flight plan parsing failed, navigation log unavailable